Pagina principală
METAR-TAF:

METAR-TAF

Aeroporturi :

Gombe Lawanti International Airport

Gombe, Nigeria

Latitudine: 10-18-19N, longitudine: 10-54-31E, elevație: 505 m

METAR: lipsă

Ora: 18:06 (17:06 UTC)

Prognoză

Raportul a fost făcut în urmă cu 6 ore și 6 de minute, la 11:00 UTC
Prognoză valabilă de la 13 ora 12 UTC la 14 ora 18 UTC
Vânt 6 kt de la Vest/Sud-vest
Vizibilitate de 10 km sau mai mult
Nori puțini la o înălțime de 1000 picior
Temporar
de la 13 ora 15 UTC la 13 ora 21 UTC
Nori împrăștiați la o înălțime de 1300 picior
Nori puțini la o înălțime de 2000 picior, Cumulonimbus.
oraj,

TAF: DNGO 131100Z 1312/1418 24006KT 9999 FEW010 TEMPO 1315/1321 TS SCT013 FEW020CB

Observații și prognoze meteo pentru peste 4.000 de aeroporturi (rapoarte METAR și TAF).

Stațiile disponibile sunt reprezentate pe hartă prin puncte galbene și roșii.

Țineți indicatorul mouse-ului pe punctul dorit pentru a vedea denumirea stației.

Apoi, faceți clic pentru a vedea observațiile și prognozele meteorologice.

Pentru a schimba harta: Pentru mărire, faceți clic pe butoanele verzi cu cruce neagră; pentru micșorare, pe butonul verde cu o liniuță; pentru hărți învecinate, pe săgețile verzi.


METAR-TAF: